Main page
METAR-TAF:

METAR-TAF

Airports :

Jammu Airport

Jammu, India

latitude: 32-41-21N, longitude: 74-50-15E, elevation: 314 m

METAR: missing

Time: 03:01 (21:31 UTC)

Forecast

The report was made 12 hours and 1 minutes ago, at 09:30 UTC
Forecast valid from 05 at 18 UTC to 06 at 12 UTC
Wind 5 kt from the West/Southwest
Visibility: 6000 m
Scattered clouds at a height of 2500 ft
Broken clouds at a height of 10000 ft
Becoming
from 06 at 00 UTC to 06 at 04 UTC
Wind 10 kt from the Southeast
Visibility: 4000 m
Scattered clouds at a height of 2000 ft
Few clouds at a height of 3000 ft, Cumulonimbus.
Broken clouds at a height of 9000 ft
thunderstorm, rain, mist

TAF: VIJU 050930Z 0518/0612 25005KT 6000 SCT025 BKN100 BECMG 0600/0604 14010KT 4000 TSRABR SCT020 FEW030CB BKN090

Weather observations and forecasts of more than 4000 airports (METAR and TAF reports).

The available stations are represented by yellow and red dots on the map.

Hover mouse over dot to see the name of the station.

Then click to see weather observations and forecasts.

To change the map : click on the green buttons with a black cross to zoom in, on the green button with a dash to zoom out, or on the green arrows for adjacent maps.


METAR-TAF: